Ravenna, OH

3:15 PM EST on January 18, 2018 (GMT -0500)
Ravenna

Weather History for KPOV - April, 2014

Change the Weather History Date:

Sunday, April 20, 2014

  Actual Average (KCAK) Record (KCAK)
Temperature  
Mean Temperature 53 °F -  
Max Temperature 71 °F 64 °F 82 °F (1985)
Min Temperature 35 °F 42 °F 22 °F (1904)
Degree Days  
Heating Degree Days 12    
Growing Degree Days 3 (Base 50)    
Moisture  
Dew Point 28 °F    
Average Humidity 43    
Maximum Humidity 77    
Minimum Humidity 16    
Precipitation  
Precipitation 0.00 in - - ()
Sea Level Pressure  
Sea Level Pressure 30.26 in    
Wind  
Wind Speed 5 mph (ESE)    
Max Wind Speed 12 mph    
Max Gust Speed 16 mph    
Visibility 10 miles    
Events      
Averages and records for this station are not official NWS values.
T = Trace of Precipitation, MM = Missing Value Source: NWS Daily Summary

Daily Weather History Graph

Daily Weather History Graph

Search for Another Location

Airport or City:

Trip Planner

Search our weather history database for the weather conditions in past years. The results will help you decide how hot, cold, wet, or windy it might be!

Date:

Astronomy

Apr. 20, 2014 Rise Set
Actual Time 6:38 AM EDT 8:10 PM EDT
Civil Twilight 6:09 AM EDT 8:39 PM EDT
Nautical Twilight 5:34 AM EDT 9:14 PM EDT
Astronomical Twilight 4:57 AM EDT 9:51 PM EDT
Moon 12:50 AM EDT (4/20) 10:55 AM EDT (4/20)
Length of Visible Light 14h 30m
Length of Day
13h 32m
Waning Gibbous, 69% of the Moon is Illuminated
Apr 20
Waning Gibbous
Apr 22
Last Quarter
Apr 29
New
May 6
First Quarter
May 14
Full

Hourly Weather History & Observations

Time (EDT) Temp. Windchill Dew Point Humidity Pressure Visibility Wind Dir Wind Speed Gust Speed Precip Events Conditions
12:15 AM 39.9 °F 36.7 °F 29.3 °F 66% 30.31 in 10.0 mi ENE 4.6 mph - N/A   Clear
12:35 AM 39.2 °F 35.9 °F 29.5 °F 68% 30.30 in 10.0 mi ENE 4.6 mph - N/A   Clear
12:55 AM 39.0 °F 36.8 °F 29.3 °F 68% 30.31 in 10.0 mi East 3.5 mph - N/A   Clear
1:15 AM 39.2 °F 37.0 °F 29.3 °F 68% 30.31 in 10.0 mi ENE 3.5 mph - N/A   Clear
1:36 AM 38.3 °F 34.8 °F 29.3 °F 70% 30.30 in 10.0 mi East 4.6 mph - N/A   Clear
1:55 AM 37.9 °F 34.4 °F 29.8 °F 73% 30.30 in 10.0 mi East 4.6 mph - N/A   Clear
2:15 AM 37.6 °F 34.0 °F 29.8 °F 74% 30.30 in 10.0 mi ENE 4.6 mph - N/A   Clear
2:36 AM 37.2 °F 32.6 °F 29.7 °F 74% 30.29 in 10.0 mi ENE 5.8 mph - N/A   Clear
2:55 AM 36.7 °F 32.0 °F 29.8 °F 76% 30.30 in 10.0 mi ENE 5.8 mph - N/A   Clear
3:16 AM 36.7 °F 32.9 °F 30.0 °F 77% 30.30 in 10.0 mi ENE 4.6 mph - N/A   Clear
3:35 AM 36.5 °F 32.7 °F 30.0 °F 77% 30.29 in 10.0 mi East 4.6 mph - N/A   Clear
3:56 AM 37.8 °F 34.2 °F 30.0 °F 74% 30.30 in 10.0 mi ENE 4.6 mph - N/A   Clear
4:15 AM 37.4 °F 33.8 °F 30.0 °F 75% 30.30 in 10.0 mi ENE 4.6 mph - N/A   Clear
4:35 AM 37.8 °F 34.2 °F 29.7 °F 73% 30.31 in 10.0 mi ENE 4.6 mph - N/A   Clear
4:55 AM 37.9 °F 34.4 °F 29.3 °F 71% 30.31 in 10.0 mi East 4.6 mph - N/A   Clear
5:15 AM 36.9 °F 33.1 °F 29.3 °F 74% 30.31 in 10.0 mi East 4.6 mph - N/A   Clear
5:35 AM 36.0 °F 31.1 °F 29.1 °F 76% 30.31 in 10.0 mi East 5.8 mph - N/A   Clear
5:56 AM 35.8 °F 30.1 °F 29.1 °F 77% 30.32 in 10.0 mi East 6.9 mph - N/A   Clear
6:15 AM 35.8 °F 30.1 °F 28.9 °F 76% 30.32 in 10.0 mi East 6.9 mph - N/A   Clear
6:36 AM 36.3 °F 31.6 °F 28.9 °F 75% 30.32 in 10.0 mi East 5.8 mph - N/A   Clear
6:55 AM 36.3 °F 30.8 °F 29.1 °F 75% 30.33 in 10.0 mi East 6.9 mph - N/A   Clear
7:15 AM 38.5 °F 33.4 °F 29.8 °F 71% 30.33 in 10.0 mi East 6.9 mph - N/A   Clear
7:36 AM 42.3 °F 38.6 °F 30.4 °F 63% 30.34 in 10.0 mi East 5.8 mph - N/A   Clear
7:55 AM 44.4 °F 41.2 °F 30.7 °F 59% 30.34 in 10.0 mi East 5.8 mph - N/A   Clear
8:15 AM 46.4 °F 42.4 °F 30.9 °F 55% 30.34 in 10.0 mi ESE 8.1 mph - N/A   Clear
8:36 AM 48.7 °F - 30.4 °F 49% 30.33 in 10.0 mi SE 6.9 mph - N/A   Clear
8:55 AM 50.2 °F - 30.0 °F 46% 30.32 in 10.0 mi ESE 5.8 mph - N/A   Clear
9:15 AM 50.2 °F - 29.1 °F 44% 30.33 in 10.0 mi ESE 4.6 mph - N/A   Clear
9:35 AM 52.7 °F - 29.8 °F 42% 30.33 in 10.0 mi SE 6.9 mph - N/A   Clear
9:55 AM 54.1 °F - 29.7 °F 39% 30.32 in 10.0 mi SE 4.6 mph - N/A   Clear
10:15 AM 56.5 °F - 30.9 °F 38% 30.32 in 10.0 mi ESE 6.9 mph - N/A   Clear
10:35 AM 57.4 °F - 30.4 °F 36% 30.32 in 10.0 mi SE 6.9 mph - N/A   Clear
10:55 AM 59.2 °F - 29.3 °F 32% 30.32 in 10.0 mi SE 6.9 mph - N/A   Clear
11:15 AM 60.3 °F - 30.2 °F 32% 30.31 in 10.0 mi ESE 9.2 mph - N/A   Clear
11:35 AM 61.3 °F - 30.2 °F 31% 30.30 in 10.0 mi ESE 6.9 mph - N/A   Clear
11:55 AM 62.8 °F - 28.2 °F 27% 30.30 in 10.0 mi SE 10.4 mph - N/A   Clear
12:15 PM 64.2 °F - 29.3 °F 27% 30.30 in 10.0 mi SE 8.1 mph - N/A   Clear
12:36 PM 64.8 °F - 27.9 °F 25% 30.29 in 10.0 mi South 5.8 mph - N/A   Clear
12:55 PM 64.9 °F - 27.0 °F 24% 30.28 in 10.0 mi ESE 6.9 mph - N/A   Clear
1:15 PM 66.0 °F - 30.0 °F 26% 30.27 in 10.0 mi SE 9.2 mph - N/A   Clear
1:35 PM 67.3 °F - 29.1 °F 24% 30.27 in 10.0 mi ESE 10.4 mph - N/A   Clear
1:56 PM 66.7 °F - 27.5 °F 23% 30.27 in 10.0 mi ESE 11.5 mph - N/A   Clear
2:16 PM 68.4 °F - 31.8 °F 26% 30.26 in 10.0 mi SE 10.4 mph 16.1 mph N/A   Clear
2:35 PM 68.4 °F - 28.8 °F 23% 30.25 in 10.0 mi ESE 6.9 mph - N/A   Clear
2:55 PM 68.7 °F - 28.4 °F 22% 30.25 in 10.0 mi SE 5.8 mph - N/A   Clear
3:16 PM 69.4 °F - 25.7 °F 19% 30.24 in 10.0 mi SSE 8.1 mph - N/A   Clear
3:35 PM 68.9 °F - 26.1 °F 20% 30.23 in 10.0 mi SSE 3.5 mph - N/A   Clear
3:55 PM 70.0 °F - 25.9 °F 19% 30.23 in 10.0 mi South 3.5 mph - N/A   Clear
4:16 PM 70.7 °F - 26.4 °F 19% 30.22 in 10.0 mi ESE 6.9 mph - N/A   Clear
4:35 PM 70.7 °F - 21.4 °F 16% 30.22 in 10.0 mi SSE 4.6 mph - N/A   Clear
4:55 PM 71.4 °F - 24.4 °F 17% 30.21 in 10.0 mi South 5.8 mph - N/A   Clear
5:15 PM 71.1 °F - 25.2 °F 18% 30.20 in 10.0 mi South 5.8 mph - N/A   Clear
5:35 PM 71.1 °F - 24.3 °F 17% 30.19 in 10.0 mi ESE 4.6 mph - N/A   Clear
5:56 PM 70.2 °F - 22.6 °F 17% 30.18 in 10.0 mi South 3.5 mph - N/A   Clear
6:16 PM 71.4 °F - 22.5 °F 16% 30.18 in 10.0 mi SSE 3.5 mph - N/A   Clear
6:35 PM 70.3 °F - 21.2 °F 16% 30.18 in 10.0 mi Calm Calm - N/A   Clear
6:55 PM 70.2 °F - 21.9 °F 16% 30.18 in 10.0 mi SSW 5.8 mph - N/A   Clear
7:16 PM 68.7 °F - 20.5 °F 16% 30.17 in 10.0 mi Calm Calm - N/A   Clear
7:35 PM 67.8 °F - 22.3 °F 18% 30.17 in 10.0 mi South 3.5 mph - N/A   Clear
7:55 PM 65.8 °F - 24.1 °F 21% 30.16 in 10.0 mi Calm Calm - N/A   Clear
8:15 PM 64.2 °F - 23.5 °F 21% 30.16 in 10.0 mi Calm Calm - N/A   Clear
8:35 PM 62.6 °F - 25.2 °F 24% 30.16 in 10.0 mi Calm Calm - N/A   Clear
8:55 PM 59.7 °F - 28.0 °F 30% 30.17 in 10.0 mi Calm Calm - N/A   Clear
9:16 PM 54.5 °F - 35.1 °F 48% 30.17 in 10.0 mi Calm Calm - N/A   Clear
9:35 PM 54.7 °F - 28.6 °F 37% 30.16 in 10.0 mi Calm Calm - N/A   Clear
9:55 PM 53.6 °F - 29.1 °F 39% 30.16 in 10.0 mi Calm Calm - N/A   Clear
10:16 PM 53.6 °F - 30.0 °F 41% 30.16 in 10.0 mi Calm Calm - N/A   Clear
10:35 PM 54.5 °F - 26.8 °F 34% 30.16 in 10.0 mi Calm Calm - N/A   Clear
10:55 PM 51.4 °F - 30.6 °F 45% 30.15 in 10.0 mi Calm Calm - N/A   Clear
11:16 PM 53.4 °F - 26.2 °F 35% 30.15 in 10.0 mi Calm Calm - N/A   Clear
11:35 PM 52.0 °F - 28.2 °F 40% 30.14 in 10.0 mi Calm Calm - N/A   Clear
11:55 PM 51.4 °F - 26.8 °F 38% 30.14 in 10.0 mi Calm Calm - N/A   Clear